Time;durP1;ratioP1;P1;durP2;ratioP2;P2;SDS_P1;SDS_P2;PMS_P1;PMS_P2;Temp;Humidity;BMP_temperature;BMP_pressure;BME280_temperature;BME280_humidity;BME280_pressure;Samples;Min_cycle;Max_cycle;Signal;HPM_P1;HPM_P2
2023/01/12 00:00:47;;;;;;;10.52;6.88;;;;;;;2.90;69.32;94968.81;5128183;27;20031;-73
2023/01/12 00:03:12;;;;;;;14.73;9.40;;;;;;;2.82;69.66;94951.22;5139764;27;20015;-73
2023/01/12 00:05:38;;;;;;;14.15;7.95;;;;;;;2.99;69.40;94965.75;5126955;28;20027;-73
2023/01/12 00:08:04;;;;;;;13.68;9.88;;;;;;;2.87;69.22;94943.25;5126404;28;20027;-77
2023/01/12 00:10:29;;;;;;;13.40;9.55;;;;;;;3.02;69.20;94965.59;5128667;27;20052;-72
2023/01/12 00:12:55;;;;;;;20.17;11.50;;;;;;;3.00;69.48;94969.97;5126969;27;20581;-73
2023/01/12 00:16:33;;;;;;;12.52;8.05;;;;;;;2.99;69.54;94973.47;5083677;28;20031;-73
2023/01/12 00:18:06;;;;;;;24.33;18.00;;;;;;;2.90;69.93;94972.19;5124363;28;20065;-73
2023/01/12 00:20:31;;;;;;;18.40;9.60;;;;;;;3.04;69.18;94957.84;5105753;28;20054;-73
2023/01/12 00:22:57;;;;;;;13.85;8.00;;;;;;;3.07;69.23;94962.81;5123383;28;20031;-73
2023/01/12 00:25:22;;;;;;;10.85;7.57;;;;;;;2.98;69.29;94969.25;5123152;27;20050;-73
2023/01/12 00:27:48;;;;;;;10.55;6.80;;;;;;;2.91;69.14;94962.75;5109549;28;20031;-74
2023/01/12 00:30:13;;;;;;;9.80;6.28;;;;;;;2.91;69.61;94971.28;5092069;28;20148;-74
2023/01/12 00:32:39;;;;;;;10.65;6.30;;;;;;;2.85;69.87;94973.31;5107637;28;20077;-74
2023/01/12 00:35:04;;;;;;;9.93;6.53;;;;;;;2.68;70.20;94931.38;5109783;28;20528;-74
2023/01/12 00:37:30;;;;;;;8.52;5.78;;;;;;;2.91;70.36;94962.75;5111054;28;20037;-75
2023/01/12 00:39:55;;;;;;;10.55;6.78;;;;;;;2.93;70.36;94971.22;5110301;27;20048;-74
2023/01/12 00:45:23;;;;;;;11.02;6.53;;;;;;;2.91;70.11;94967.88;5109135;27;20046;-74
2023/01/12 00:47:48;;;;;;;9.55;6.90;;;;;;;2.87;69.39;94956.94;5094431;28;20040;-74
2023/01/12 00:50:14;;;;;;;8.80;6.28;;;;;;;2.94;70.00;94962.59;5108874;28;20055;-74
2023/01/12 00:52:39;;;;;;;10.25;6.45;;;;;;;2.94;70.11;94962.59;5107092;28;20024;-74
2023/01/12 00:55:05;;;;;;;9.70;6.40;;;;;;;2.91;69.97;94955.88;5091856;28;20390;-74
2023/01/12 00:57:30;;;;;;;9.93;6.15;;;;;;;2.96;69.93;94965.09;5108386;28;20035;-74
2023/01/12 00:59:58;;;;;;;9.63;6.00;;;;;;;2.97;69.59;94957.31;5108680;27;20501;-74
2023/01/12 01:02:23;;;;;;;9.13;6.85;;;;;;;2.98;69.61;94956.41;5107856;27;20119;-74
2023/01/12 01:04:49;;;;;;;10.52;6.85;;;;;;;3.06;69.78;94967.09;5090919;28;20106;-75
2023/01/12 01:07:15;;;;;;;10.20;7.35;;;;;;;3.04;69.67;94958.66;5092403;28;20040;-75
2023/01/12 01:09:40;;;;;;;11.57;7.43;;;;;;;2.97;69.96;94967.56;5107989;28;20487;-74
2023/01/12 01:12:06;;;;;;;10.93;6.95;;;;;;;2.96;69.20;94965.91;5076551;28;20030;-74
2023/01/12 01:14:31;;;;;;;10.07;6.78;;;;;;;2.85;69.67;94951.06;5092604;28;20043;-74
2023/01/12 01:16:57;;;;;;;9.85;5.93;;;;;;;2.89;69.79;94959.41;5095733;28;20447;-75
2023/01/12 01:19:23;;;;;;;8.90;5.53;;;;;;;2.95;69.22;94960.84;5111952;27;20239;-74
2023/01/12 01:21:48;;;;;;;10.98;6.13;;;;;;;2.91;69.66;94965.31;5089818;28;20565;-74
2023/01/12 01:24:14;;;;;;;7.72;5.18;;;;;;;2.77;69.84;94949.78;5107705;27;20052;-74
2023/01/12 01:26:39;;;;;;;7.90;5.30;;;;;;;2.83;69.59;94960.56;5094958;27;20260;-74
2023/01/12 01:29:05;;;;;;;10.65;5.85;;;;;;;2.81;70.22;94953.84;5073955;28;20039;-74
2023/01/12 01:31:31;;;;;;;8.93;5.47;;;;;;;2.93;70.00;94966.06;5096108;27;20110;-74
2023/01/12 01:33:56;;;;;;;8.05;5.40;;;;;;;2.82;69.89;94963.22;5107581;27;20035;-74
2023/01/12 01:36:21;;;;;;;8.23;5.57;;;;;;;2.75;69.50;94957.53;5108925;27;20027;-74
2023/01/12 01:38:47;;;;;;;9.35;6.07;;;;;;;2.90;69.75;94981.63;5110011;27;20040;-75
2023/01/12 01:41:20;;;;;;;8.88;5.95;;;;;;;2.79;69.51;94982.16;5091635;27;20031;-75
2023/01/12 01:44:05;;;;;;;8.50;5.63;;;;;;;2.88;69.75;94986.00;5090090;28;20040;-74
2023/01/12 01:47:07;;;;;;;8.20;5.57;;;;;;;2.85;69.51;94974.16;5108011;27;20031;-74
2023/01/12 01:49:36;;;;;;;9.65;5.47;;;;;;;2.94;69.56;94983.13;5084651;28;20047;-74
2023/01/12 01:52:29;;;;;;;9.68;6.20;;;;;;;2.90;69.26;94990.16;5093327;28;20046;-74
2023/01/12 01:55:02;;;;;;;9.93;6.53;;;;;;;2.85;69.79;94996.41;5086824;27;20039;-74
2023/01/12 01:57:32;;;;;;;11.68;6.80;;;;;;;2.88;69.40;94984.25;5112667;27;20168;-74
2023/01/12 01:59:58;;;;;;;7.77;5.27;;;;;;;2.82;69.50;94989.69;5091502;27;20084;-74
2023/01/12 02:02:23;;;;;;;8.75;5.50;;;;;;;2.86;69.59;94995.50;5090360;28;20051;-74
2023/01/12 02:04:49;;;;;;;8.75;5.55;;;;;;;2.87;69.37;94999.72;5094177;28;20036;-74
2023/01/12 02:07:14;;;;;;;8.07;4.88;;;;;;;2.71;69.80;94983.44;5092192;28;20043;-74
2023/01/12 02:09:39;;;;;;;8.35;5.25;;;;;;;2.81;69.48;95000.03;5077348;28;20034;-74
2023/01/12 02:17:55;;;;;;;10.07;6.00;;;;;;;2.92;69.19;94997.75;5108612;27;20118;-74
2023/01/12 02:20:39;;;;;;;10.10;5.88;;;;;;;2.86;69.07;94992.94;5130314;27;20400;-74
2023/01/12 02:23:41;;;;;;;9.68;5.72;;;;;;;2.80;69.30;94993.25;5114603;27;20027;-75
2023/01/12 02:26:44;;;;;;;8.98;5.72;;;;;;;2.67;69.31;94993.88;5131045;27;20103;-74
2023/01/12 02:29:54;;;;;;;9.02;5.38;;;;;;;2.62;69.61;94995.81;5130852;27;20516;-74
2023/01/12 02:32:26;;;;;;;9.52;5.32;;;;;;;2.56;69.83;94995.25;5094960;28;20068;-74
2023/01/12 02:35:16;;;;;;;8.50;5.28;;;;;;;2.57;69.59;94981.56;5121026;27;20035;-74
2023/01/12 02:37:49;;;;;;;8.23;5.13;;;;;;;2.44;70.03;94979.56;5115348;27;20112;-76
2023/01/12 02:40:33;;;;;;;8.05;5.40;;;;;;;2.36;70.03;94973.97;5111831;27;20047;-74
2023/01/12 02:43:28;;;;;;;8.43;5.28;;;;;;;2.34;70.45;94980.09;5131004;27;20023;-74
2023/01/12 02:45:58;;;;;;;8.23;5.43;;;;;;;2.37;70.24;94973.09;5124965;27;20040;-74
2023/01/12 02:48:39;;;;;;;8.98;5.93;;;;;;;2.37;70.73;94964.59;5090036;28;20236;-74
2023/01/12 02:51:05;;;;;;;8.57;5.45;;;;;;;2.50;70.62;94970.75;5123944;27;20027;-74
2023/01/12 02:53:42;;;;;;;8.55;5.85;;;;;;;2.54;70.50;94969.72;5129721;27;20441;-74
2023/01/12 02:56:07;;;;;;;10.38;6.60;;;;;;;2.63;70.38;94982.06;5125646;27;20027;-74
2023/01/12 02:58:34;;;;;;;17.60;8.80;;;;;;;2.54;70.24;94966.31;5093148;28;20511;-74
2023/01/12 03:01:00;;;;;;;7.93;5.30;;;;;;;2.54;69.93;94964.59;5110952;27;20029;-74
2023/01/12 03:03:25;;;;;;;9.77;6.13;;;;;;;2.63;70.06;94981.25;5111672;27;20443;-74
2023/01/12 03:05:54;;;;;;;11.23;6.40;;;;;;;2.42;70.28;94954.91;5121586;27;20476;-74
2023/01/12 03:08:22;;;;;;;10.23;6.00;;;;;;;2.62;70.01;94972.72;5093334;28;20438;-74
2023/01/12 03:11:08;;;;;;;8.82;5.30;;;;;;;2.71;70.80;94975.75;5110050;28;20038;-74
2023/01/12 03:13:35;;;;;;;8.95;5.55;;;;;;;2.61;70.78;94965.94;5110049;28;20531;-74
2023/01/12 03:16:00;;;;;;;10.73;6.38;;;;;;;2.65;70.80;94972.59;5076529;28;20067;-74
2023/01/12 03:18:33;;;;;;;7.93;5.05;;;;;;;2.77;70.88;94970.31;5092711;28;20107;-74
2023/01/12 03:21:22;;;;;;;9.00;5.43;;;;;;;2.80;70.80;94976.13;5112656;28;20039;-74
2023/01/12 03:23:50;;;;;;;9.18;5.70;;;;;;;2.65;70.40;94940.97;5109767;28;20036;-74
2023/01/12 03:26:17;;;;;;;8.85;5.70;;;;;;;2.81;70.09;94966.69;5090695;28;20027;-74
2023/01/12 03:28:45;;;;;;;9.63;6.57;;;;;;;2.80;70.47;94965.03;5090497;28;20032;-74
2023/01/12 03:31:11;;;;;;;10.27;6.65;;;;;;;2.79;70.25;94958.25;5100012;28;20416;-74
2023/01/12 03:33:40;;;;;;;9.98;7.00;;;;;;;2.87;70.23;94972.34;5112952;28;20027;-74
2023/01/12 03:36:31;;;;;;;10.02;7.72;;;;;;;2.78;70.11;94964.25;5091779;28;20061;-74
2023/01/12 03:39:37;;;;;;;11.80;7.43;;;;;;;2.75;69.40;94966.97;5115160;28;20088;-75
2023/01/12 03:42:11;;;;;;;8.93;5.93;;;;;;;2.71;69.53;94965.50;5096093;28;20047;-74
2023/01/12 03:45:17;;;;;;;9.57;6.10;;;;;;;2.73;69.70;94961.09;5073062;28;20036;-74
2023/01/12 03:47:42;;;;;;;9.32;6.38;;;;;;;2.68;69.95;94969.84;5099516;28;20062;-74
2023/01/12 03:50:21;;;;;;;8.82;6.00;;;;;;;2.73;69.62;94961.09;5124692;28;20027;-74
2023/01/12 03:52:46;;;;;;;10.68;7.55;;;;;;;2.72;69.48;94967.97;5098776;28;20035;-75
2023/01/12 03:55:17;;;;;;;14.52;8.88;;;;;;;2.65;69.97;94962.31;5095417;28;20393;-74
2023/01/12 03:57:42;;;;;;;13.20;8.10;;;;;;;2.76;69.53;94963.50;5105604;28;20031;-75
2023/01/12 04:00:09;;;;;;;11.40;7.30;;;;;;;2.58;69.83;94943.00;5120148;27;20114;-74
2023/01/12 04:02:34;;;;;;;11.13;6.97;;;;;;;2.65;69.60;94958.94;5096570;28;20043;-74
2023/01/12 04:04:59;;;;;;;11.38;7.28;;;;;;;2.51;69.75;94948.50;5130951;27;20450;-75
2023/01/12 04:07:25;;;;;;;7.75;5.20;;;;;;;2.66;69.68;94971.66;5099548;27;20015;-74
2023/01/12 04:09:51;;;;;;;10.65;6.85;;;;;;;2.64;69.93;94970.91;5131576;27;20039;-74
2023/01/12 04:12:17;;;;;;;9.80;5.80;;;;;;;2.67;70.25;94964.78;5113966;27;20024;-74
2023/01/12 04:14:43;;;;;;;9.85;6.03;;;;;;;2.62;70.11;94959.09;5114665;27;20035;-74
2023/01/12 04:17:12;;;;;;;11.52;7.13;;;;;;;2.65;70.16;94959.75;5102130;27;20092;-74
2023/01/12 04:19:37;;;;;;;13.02;6.68;;;;;;;2.74;69.71;94965.34;5117073;27;20172;-74
2023/01/12 04:24:47;;;;;;;10.23;6.43;;;;;;;2.69;69.86;94974.06;5105333;28;20059;-74
2023/01/12 04:27:13;;;;;;;11.07;6.93;;;;;;;2.66;70.24;94969.09;5102817;28;20019;-74
2023/01/12 04:29:39;;;;;;;13.18;7.10;;;;;;;2.55;70.34;94965.41;5104349;28;20032;-74
2023/01/12 04:46:27;;;;;;;12.02;8.90;;;;;;;3.42;67.52;94981.50;5146023;27;20380;-73
2023/01/12 04:48:52;;;;;;;15.45;10.20;;;;;;;3.12;67.80;94953.97;5142336;27;20035;-73
2023/01/12 05:03:59;;;;;;;10.85;7.25;;;;;;;3.58;66.51;94966.97;5100007;27;20395;-74
2023/01/12 05:06:25;;;;;;;10.65;7.00;;;;;;;3.60;66.68;94984.88;5101558;28;20127;-74
2023/01/12 05:11:35;;;;;;;8.77;5.72;;;;;;;3.34;67.95;94988.78;5098699;28;20055;-74
2023/01/12 05:14:01;;;;;;;8.75;5.30;;;;;;;3.21;68.61;94991.16;5098876;28;20044;-74
2023/01/12 05:16:26;;;;;;;8.95;5.75;;;;;;;3.07;69.07;95001.31;5069542;28;20028;-74
2023/01/12 05:30:08;;;;;;;35.05;15.05;;;;;;;3.61;66.72;95013.97;5145235;27;20384;-73
2023/01/12 05:32:37;;;;;;;19.65;9.90;;;;;;;3.42;67.57;95014.91;5145424;27;20077;-72
2023/01/12 05:35:04;;;;;;;20.13;8.77;;;;;;;3.32;67.89;95024.84;5123423;28;20073;-73
2023/01/12 05:37:30;;;;;;;16.20;8.40;;;;;;;3.09;68.69;95020.88;5107120;28;20035;-71
2023/01/12 05:39:55;;;;;;;14.43;7.28;;;;;;;3.07;69.34;95027.81;5122010;27;20100;-72
2023/01/12 05:45:06;;;;;;;10.00;6.22;;;;;;;3.00;69.51;95029.00;5123354;28;20088;-71
2023/01/12 05:47:32;;;;;;;9.68;5.85;;;;;;;3.07;68.87;95040.66;5090076;28;20028;-72
2023/01/12 05:49:57;;;;;;;8.35;5.90;;;;;;;2.94;69.48;95037.00;5105396;28;20038;-72
2023/01/12 05:52:23;;;;;;;7.50;5.40;;;;;;;2.97;69.49;95046.31;5123328;28;20030;-70
2023/01/12 05:54:48;;;;;;;9.57;5.82;;;;;;;3.03;68.97;95044.25;5124454;27;20092;-72
2023/01/12 05:57:14;;;;;;;12.52;7.03;;;;;;;2.99;68.87;95045.31;5127198;28;20035;-73
2023/01/12 05:59:39;;;;;;;37.75;12.75;;;;;;;2.99;69.62;95041.94;5127219;27;20068;-72
2023/01/12 06:02:05;;;;;;;47.13;16.10;;;;;;;2.93;69.72;95037.94;5093298;28;20030;-70
2023/01/12 06:04:30;;;;;;;17.23;9.25;;;;;;;2.95;70.03;95040.41;5124368;27;20032;-72
2023/01/12 06:06:56;;;;;;;32.05;13.18;;;;;;;2.94;70.14;95043.88;5125725;27;20027;-71
2023/01/12 06:09:21;;;;;;;91.68;23.58;;;;;;;2.69;69.80;95002.28;5122419;27;20492;-72
2023/01/12 06:14:31;;;;;;;40.55;16.77;;;;;;;2.71;70.60;95038.16;5124758;27;20038;-71
2023/01/12 06:16:56;;;;;;;18.17;9.77;;;;;;;2.69;71.03;95037.38;5105794;28;20031;-71
2023/01/12 06:19:21;;;;;;;16.48;8.73;;;;;;;2.39;71.12;95002.03;5121451;27;20046;-72
2023/01/12 06:21:47;;;;;;;14.90;8.68;;;;;;;2.54;70.91;95036.41;5123087;28;20565;-72
2023/01/12 06:24:12;;;;;;;13.38;7.80;;;;;;;2.58;70.93;95040.47;5106268;27;20522;-72
2023/01/12 06:26:38;;;;;;;13.50;7.32;;;;;;;2.60;71.27;95041.22;5106695;28;20034;-71
2023/01/12 06:29:05;;;;;;;16.35;8.10;;;;;;;2.52;71.01;95022.81;5121030;27;20112;-72
2023/01/12 06:31:31;;;;;;;13.07;7.93;;;;;;;2.56;71.61;95032.00;5110322;28;20024;-72
2023/01/12 06:33:56;;;;;;;13.38;8.40;;;;;;;2.67;71.26;95034.06;5092138;28;20538;-72
2023/01/12 06:36:22;;;;;;;12.98;8.07;;;;;;;2.69;71.68;95045.91;5091863;28;20389;-71
2023/01/12 06:38:47;;;;;;;11.55;6.45;;;;;;;2.69;71.44;95042.50;5108938;28;20036;-72
2023/01/12 06:43:57;;;;;;;10.90;6.80;;;;;;;2.74;71.51;95050.00;5109135;28;20476;-72
2023/01/12 06:46:23;;;;;;;9.50;6.30;;;;;;;2.72;71.15;95034.66;5108852;28;20019;-72
2023/01/12 06:48:48;;;;;;;13.23;7.72;;;;;;;2.78;71.02;95051.50;5107331;28;20085;-72
2023/01/12 06:51:13;;;;;;;11.98;8.18;;;;;;;2.76;71.43;95050.72;5091778;28;20028;-72
2023/01/12 06:53:39;;;;;;;9.35;6.15;;;;;;;2.75;71.23;95055.03;5110327;28;20035;-71
2023/01/12 06:56:05;;;;;;;10.68;6.75;;;;;;;2.74;71.58;95055.13;5109066;28;20420;-73
2023/01/12 06:58:30;;;;;;;13.63;7.63;;;;;;;2.71;71.79;95062.97;5090641;28;20096;-71
2023/01/12 07:01:02;;;;;;;11.88;6.80;;;;;;;2.78;71.57;95059.19;5109104;28;20024;-71
2023/01/12 07:03:28;;;;;;;10.20;6.68;;;;;;;2.82;71.41;95066.69;5108413;28;20114;-70
2023/01/12 07:05:57;;;;;;;8.82;6.15;;;;;;;2.86;71.20;95069.91;5091307;28;20042;-72
2023/01/12 07:08:23;;;;;;;9.73;6.28;;;;;;;2.84;71.48;95059.75;5107145;28;20032;-71
2023/01/12 07:10:48;;;;;;;12.05;7.15;;;;;;;2.82;70.99;95069.25;5091348;28;20591;-72
2023/01/12 07:13:14;;;;;;;11.55;6.38;;;;;;;2.83;71.18;95062.38;5107920;28;20054;-71
2023/01/12 07:15:39;;;;;;;10.27;5.85;;;;;;;2.83;71.26;95059.81;5091324;28;20157;-71
2023/01/12 07:18:05;;;;;;;13.75;5.80;;;;;;;2.82;71.08;95056.41;5106774;28;20036;-72
2023/01/12 07:20:31;;;;;;;9.13;6.13;;;;;;;2.83;71.56;95073.47;5108145;28;20020;-71
2023/01/12 07:22:56;;;;;;;9.30;6.00;;;;;;;2.88;71.07;95070.69;5091409;28;20043;-71
2023/01/12 07:25:23;;;;;;;9.98;6.50;;;;;;;2.96;71.19;95070.31;5112701;28;20062;-71
2023/01/12 07:27:53;;;;;;;9.02;6.03;;;;;;;2.93;71.34;95057.63;5110108;28;20089;-72
2023/01/12 07:30:20;;;;;;;10.13;6.20;;;;;;;3.04;71.22;95068.22;5073187;28;20516;-72
2023/01/12 07:32:46;;;;;;;9.23;5.93;;;;;;;2.97;71.30;95067.66;5089153;28;20024;-71
2023/01/12 07:35:11;;;;;;;8.80;5.80;;;;;;;2.97;71.30;95070.22;5089203;28;20028;-72
2023/01/12 07:37:36;;;;;;;8.98;5.85;;;;;;;3.07;70.83;95073.19;5092422;28;20028;-72
2023/01/12 07:40:02;;;;;;;9.65;5.60;;;;;;;3.12;70.38;95063.50;5110847;28;20527;-72
2023/01/12 07:42:28;;;;;;;11.20;6.80;;;;;;;3.11;70.54;95056.72;5108290;28;20016;-72
2023/01/12 07:44:53;;;;;;;10.43;6.18;;;;;;;3.23;70.56;95075.81;5109171;28;20552;-72
2023/01/12 07:47:19;;;;;;;10.98;6.88;;;;;;;3.20;70.23;95053.69;5110582;28;20163;-71
2023/01/12 07:49:44;;;;;;;9.85;6.40;;;;;;;3.30;70.14;95072.88;5108654;28;20096;-71
2023/01/12 07:52:11;;;;;;;9.68;6.10;;;;;;;3.26;70.08;95067.94;5090224;28;20024;-71
2023/01/12 07:54:36;;;;;;;9.02;6.15;;;;;;;3.36;69.90;95079.44;5107553;28;20546;-71
2023/01/12 07:57:02;;;;;;;9.68;5.97;;;;;;;3.31;70.20;95074.50;5091044;28;20031;-72
2023/01/12 07:59:28;;;;;;;9.40;5.82;;;;;;;3.36;69.87;95082.00;5108390;28;20235;-71
2023/01/12 08:01:54;;;;;;;8.93;5.95;;;;;;;3.24;70.15;95062.09;5108583;28;20020;-71
2023/01/12 08:04:20;;;;;;;20.33;12.80;;;;;;;3.40;70.16;95080.94;5110395;28;20419;-71
2023/01/12 08:06:46;;;;;;;28.17;18.80;;;;;;;3.31;70.21;95064.25;5110960;28;20028;-71
2023/01/12 08:09:11;;;;;;;14.15;8.50;;;;;;;3.40;70.08;95065.53;5112678;28;20065;-71
2023/01/12 08:11:37;;;;;;;13.98;8.35;;;;;;;3.51;69.72;95081.22;5112314;28;20031;-71
2023/01/12 08:14:04;;;;;;;16.90;9.98;;;;;;;3.26;69.61;95039.69;5094045;28;20096;-71
2023/01/12 08:16:38;;;;;;;21.15;12.57;;;;;;;3.55;69.57;95077.59;5112152;28;20128;-71
2023/01/12 08:19:15;;;;;;;14.85;8.95;;;;;;;3.65;68.93;95072.81;5111060;28;20118;-71
2023/01/12 08:21:50;;;;;;;12.32;7.28;;;;;;;3.57;68.47;95044.94;5128139;27;20031;-71
2023/01/12 08:24:17;;;;;;;9.32;6.55;;;;;;;3.67;68.79;95055.56;5093974;28;20091;-71
2023/01/12 08:26:43;;;;;;;11.40;8.50;;;;;;;3.75;68.40;95066.28;5093936;28;20059;-71
2023/01/12 08:29:11;;;;;;;19.80;10.30;;;;;;;3.81;68.78;95065.13;5093699;28;20108;-72
2023/01/12 08:31:37;;;;;;;9.10;6.65;;;;;;;3.84;68.26;95053.84;5110629;28;20503;-71
2023/01/12 08:34:02;;;;;;;7.07;4.78;;;;;;;3.93;68.03;95066.25;5093748;28;20027;-71
2023/01/12 08:36:28;;;;;;;7.65;4.43;;;;;;;4.04;67.52;95056.22;5110635;28;20420;-71
2023/01/12 08:38:54;;;;;;;5.85;4.22;;;;;;;4.01;67.53;95046.94;5110613;28;20035;-71
2023/01/12 08:41:31;;;;;;;11.63;9.38;;;;;;;4.07;67.08;95057.78;5110528;28;20039;-72
2023/01/12 08:44:10;;;;;;;9.65;5.93;;;;;;;4.07;67.22;95050.06;5129246;27;20046;-71
2023/01/12 08:46:37;;;;;;;6.50;4.28;;;;;;;4.27;65.95;95060.13;5094959;28;20026;-71
2023/01/12 08:49:06;;;;;;;7.72;5.13;;;;;;;4.20;66.09;95056.22;5110518;28;20048;-71
2023/01/12 08:51:32;;;;;;;7.82;4.50;;;;;;;4.19;66.55;95054.56;5093743;28;20062;-71
2023/01/12 08:53:58;;;;;;;6.82;4.15;;;;;;;4.27;65.93;95070.41;5110137;28;20031;-71
2023/01/12 08:56:23;;;;;;;11.25;8.48;;;;;;;4.33;66.37;95064.94;5110311;28;20031;-71
2023/01/12 08:58:49;;;;;;;8.18;5.72;;;;;;;4.29;66.63;95067.75;5092959;28;20394;-71
2023/01/12 09:01:15;;;;;;;7.40;5.03;;;;;;;4.24;66.76;95050.00;5111448;28;20027;-72
2023/01/12 09:03:43;;;;;;;10.25;5.30;;;;;;;4.23;66.62;95068.91;5110118;28;20059;-71
2023/01/12 09:06:10;;;;;;;14.27;8.63;;;;;;;4.25;66.41;95056.81;5093497;28;20028;-71
2023/01/12 09:08:35;;;;;;;11.02;6.78;;;;;;;4.35;66.21;95063.13;5076431;28;20063;-71
2023/01/12 09:11:02;;;;;;;9.70;6.70;;;;;;;4.42;65.76;95069.56;5110156;28;20039;-71
2023/01/12 09:13:28;;;;;;;24.13;9.15;;;;;;;4.51;65.76;95067.41;5110026;28;20031;-71
2023/01/12 09:15:53;;;;;;;40.40;18.00;;;;;;;4.36;66.70;95072.47;5093138;28;20106;-71
2023/01/12 09:18:19;;;;;;;13.32;7.45;;;;;;;4.43;66.25;95066.09;5111327;28;20028;-71
2023/01/12 09:20:44;;;;;;;10.30;6.13;;;;;;;4.56;65.69;95063.66;5110038;28;20053;-71
2023/01/12 09:23:10;;;;;;;18.40;10.32;;;;;;;4.55;66.04;95062.00;5110039;28;20069;-71
2023/01/12 09:25:35;;;;;;;69.30;33.72;;;;;;;4.62;65.86;95060.75;5111192;28;20024;-71
2023/01/12 09:28:00;;;;;;;50.47;24.58;;;;;;;4.54;66.09;95054.38;5109862;28;20059;-71
2023/01/12 09:30:26;;;;;;;46.70;21.58;;;;;;;4.68;65.90;95055.28;5093010;28;20019;-71
2023/01/12 09:32:53;;;;;;;10.93;7.40;;;;;;;4.61;65.31;95064.25;5092949;28;20032;-71
2023/01/12 09:35:20;;;;;;;8.93;5.75;;;;;;;4.66;65.23;95053.72;5109833;28;20487;-71
2023/01/12 09:37:46;;;;;;;14.57;7.72;;;;;;;4.62;65.69;95055.59;5092876;28;20028;-71
2023/01/12 09:40:15;;;;;;;9.13;5.88;;;;;;;4.57;66.17;95046.47;5109877;28;20076;-72
2023/01/12 09:48:17;;;;;;;8.10;5.97;;;;;;;4.56;65.32;95039.69;5110866;28;20047;-71
2023/01/12 09:51:06;;;;;;;7.68;5.28;;;;;;;4.56;65.43;95052.56;5093113;28;20026;-71
2023/01/12 09:53:33;;;;;;;13.20;9.80;;;;;;;4.50;65.78;95037.47;5093155;28;20043;-71
2023/01/12 09:56:17;;;;;;;19.27;12.25;;;;;;;4.58;65.83;95043.00;5092783;28;20048;-71
2023/01/12 09:59:14;;;;;;;31.35;15.90;;;;;;;4.56;65.61;95027.63;5111078;28;20066;-71
2023/01/12 10:01:39;;;;;;;14.60;8.85;;;;;;;4.66;65.30;95043.41;5109869;28;20488;-71
2023/01/12 10:04:05;;;;;;;11.43;6.55;;;;;;;4.66;65.53;95040.84;5109504;28;20036;-71
2023/01/12 10:06:30;;;;;;;8.10;5.07;;;;;;;4.56;65.16;95029.38;5096230;28;20481;-71
2023/01/12 10:08:57;;;;;;;13.25;8.88;;;;;;;4.47;65.88;95039.28;5113616;27;20040;-71
2023/01/12 10:11:38;;;;;;;10.48;6.88;;;;;;;4.55;65.67;95043.19;5113370;28;20030;-71
2023/01/12 10:14:22;;;;;;;10.38;6.78;;;;;;;4.60;65.07;95046.34;5113531;28;20458;-71
2023/01/12 10:17:18;;;;;;;7.97;5.30;;;;;;;4.53;65.41;95055.28;5113164;28;20564;-71
2023/01/12 10:19:56;;;;;;;12.18;7.10;;;;;;;4.45;65.91;95056.53;5114378;28;20035;-71
2023/01/12 10:22:36;;;;;;;10.90;8.02;;;;;;;4.55;66.04;95053.47;5114464;28;20027;-71
2023/01/12 10:25:33;;;;;;;8.23;5.60;;;;;;;4.54;65.95;95051.78;5115085;27;20027;-71
2023/01/12 10:28:01;;;;;;;8.05;5.50;;;;;;;4.62;65.14;95045.31;5096032;28;20063;-71
2023/01/12 10:30:30;;;;;;;8.27;5.20;;;;;;;4.65;64.77;95037.44;5096320;28;20028;-71
2023/01/12 10:32:56;;;;;;;12.52;7.75;;;;;;;4.63;64.77;95031.53;5112929;28;20035;-71
2023/01/12 10:35:23;;;;;;;15.73;10.82;;;;;;;4.61;65.45;95040.25;5112922;28;20032;-71
2023/01/12 10:37:53;;;;;;;11.55;7.18;;;;;;;4.44;65.16;95036.88;5095793;28;20080;-71
2023/01/12 10:40:31;;;;;;;7.72;5.55;;;;;;;4.40;64.73;94994.25;5113027;27;20035;-71
2023/01/12 10:43:18;;;;;;;10.88;6.22;;;;;;;4.62;64.72;95039.34;5112893;28;20481;-71
2023/01/12 10:45:45;;;;;;;14.80;10.15;;;;;;;4.54;65.05;95036.34;5113942;27;20028;-71
2023/01/12 10:48:29;;;;;;;7.85;5.43;;;;;;;4.61;64.08;95035.13;5095934;28;20056;-71
2023/01/12 10:51:03;;;;;;;7.07;4.80;;;;;;;4.60;64.68;95033.47;5112769;28;20023;-71
2023/01/12 10:53:45;;;;;;;12.68;8.35;;;;;;;4.27;65.11;95016.41;5112667;28;20405;-71
2023/01/12 10:56:29;;;;;;;9.52;4.97;;;;;;;4.53;64.47;95038.09;5113810;28;20027;-71
2023/01/12 10:58:57;;;;;;;11.05;7.03;;;;;;;4.54;64.65;95036.34;5112945;28;20040;-71
2023/01/12 11:01:23;;;;;;;11.35;5.72;;;;;;;4.50;64.52;95019.44;5112375;28;20019;-71
2023/01/12 11:03:48;;;;;;;11.95;6.13;;;;;;;4.62;64.79;95024.72;5095520;28;20035;-71
2023/01/12 11:06:29;;;;;;;9.77;5.90;;;;;;;4.59;64.20;95024.06;5112449;28;20028;-71
2023/01/12 11:08:54;;;;;;;7.18;5.15;;;;;;;4.60;63.94;95025.75;5112772;27;20059;-71
2023/01/12 11:11:30;;;;;;;7.57;5.35;;;;;;;4.62;63.75;95011.84;5095304;28;20074;-72
2023/01/12 11:13:58;;;;;;;11.88;7.88;;;;;;;4.67;63.37;95006.47;5095656;28;20119;-71
2023/01/12 11:16:31;;;;;;;19.33;8.57;;;;;;;4.62;64.42;95017.00;5112092;28;20028;-71
2023/01/12 11:19:02;;;;;;;12.10;7.75;;;;;;;4.62;64.59;95018.75;5095128;28;20569;-71
2023/01/12 11:21:29;;;;;;;8.48;5.35;;;;;;;4.67;64.38;95017.56;5113425;28;20020;-71
2023/01/12 11:24:02;;;;;;;6.50;5.25;;;;;;;4.72;64.21;95019.91;5095351;28;20036;-71
2023/01/12 11:26:42;;;;;;;12.93;8.48;;;;;;;4.58;64.33;94999.25;5112088;28;20053;-71
2023/01/12 11:29:30;;;;;;;7.50;5.68;;;;;;;4.30;65.23;95011.09;5111880;28;20505;-71
2023/01/12 11:32:18;;;;;;;7.35;4.97;;;;;;;4.47;64.67;94999.88;5111948;28;20098;-71
2023/01/12 11:35:22;;;;;;;7.47;4.97;;;;;;;4.71;64.40;95007.97;5080916;28;20489;-71
2023/01/12 11:37:47;;;;;;;6.32;4.88;;;;;;;4.67;64.05;94991.84;5111571;28;20501;-71
2023/01/12 11:40:33;;;;;;;7.55;5.95;;;;;;;4.73;63.88;95000.97;5111704;28;20084;-71
2023/01/12 11:46:30;;;;;;;6.18;4.10;;;;;;;4.57;64.72;95010.44;5112850;28;20117;-71
2023/01/12 11:49:09;;;;;;;8.18;6.32;;;;;;;4.71;64.54;95007.97;5113104;28;20093;-71
2023/01/12 11:51:35;;;;;;;7.65;4.90;;;;;;;4.70;64.29;95003.72;5094348;28;20409;-71
2023/01/12 11:54:00;;;;;;;10.18;6.60;;;;;;;4.78;64.45;95000.72;5111590;28;20036;-71
2023/01/12 11:56:40;;;;;;;7.68;5.90;;;;;;;4.76;64.61;94994.81;5111434;28;20023;-71
2023/01/12 11:59:14;;;;;;;8.13;6.23;;;;;;;4.73;64.31;94997.56;5112912;28;20035;-71
2023/01/12 12:01:57;;;;;;;6.88;5.55;;;;;;;4.60;64.79;94992.31;5111937;27;20028;-71
2023/01/12 12:04:41;;;;;;;7.22;5.13;;;;;;;4.73;64.61;94989.84;5111327;28;20039;-71
2023/01/12 12:07:24;;;;;;;10.68;8.10;;;;;;;4.67;64.95;94991.03;5111133;28;20027;-71
2023/01/12 12:10:17;;;;;;;9.05;6.53;;;;;;;4.84;64.35;94992.63;5094800;28;20046;-71
2023/01/12 12:13:21;;;;;;;7.38;5.50;;;;;;;4.99;63.94;94991.75;5111236;28;20412;-71
2023/01/12 12:16:07;;;;;;;10.38;6.43;;;;;;;4.96;63.78;94994.50;5111836;28;20043;-71
2023/01/12 12:19:03;;;;;;;10.65;6.70;;;;;;;5.03;63.51;94988.06;5094968;28;20116;-71
2023/01/12 12:21:48;;;;;;;9.65;6.40;;;;;;;5.00;63.57;94990.00;5111143;28;20122;-71
2023/01/12 12:24:29;;;;;;;10.65;8.10;;;;;;;5.11;63.46;94988.47;5111043;28;20072;-71
2023/01/12 12:27:12;;;;;;;13.10;8.10;;;;;;;5.04;62.85;94983.75;5110632;28;20059;-71
2023/01/12 12:30:21;;;;;;;11.07;7.90;;;;;;;5.06;63.37;94981.91;5111944;28;20779;-71
2023/01/12 12:32:52;;;;;;;8.15;5.43;;;;;;;4.96;63.69;94981.63;5110618;28;20039;-71
2023/01/12 12:35:26;;;;;;;8.38;5.20;;;;;;;4.95;63.75;94985.13;5110751;28;20030;-71
2023/01/12 12:38:17;;;;;;;9.57;6.68;;;;;;;4.97;63.48;94980.72;5111830;28;20031;-71
2023/01/12 12:46:32;;;;;;;7.00;4.97;;;;;;;5.13;63.10;94988.38;5096367;28;20030;-71
2023/01/12 12:49:08;;;;;;;6.78;5.03;;;;;;;5.18;63.14;94986.34;5110250;28;20130;-71
2023/01/12 12:51:34;;;;;;;7.05;4.88;;;;;;;5.05;63.39;94969.97;5093942;28;20118;-71
2023/01/12 12:54:01;;;;;;;5.97;4.47;;;;;;;5.15;62.96;94992.53;5093606;28;20035;-71
2023/01/12 12:56:27;;;;;;;8.32;5.38;;;;;;;5.07;63.03;94978.41;5110398;28;20034;-71
2023/01/12 12:58:56;;;;;;;6.72;4.93;;;;;;;5.24;63.24;94986.00;5127411;27;20031;-70
2023/01/12 13:01:25;;;;;;;6.43;4.80;;;;;;;5.31;62.64;94986.44;5093396;28;20148;-71
2023/01/12 13:04:03;;;;;;;8.10;5.97;;;;;;;5.30;62.96;94990.78;5111781;28;20038;-71
2023/01/12 13:06:33;;;;;;;7.80;6.47;;;;;;;5.14;63.64;94997.75;5094215;28;20030;-71
2023/01/12 13:09:00;;;;;;;8.40;6.53;;;;;;;5.26;63.22;94991.03;5076905;28;20043;-71